sensor_id;sensor_type;location;lat;lon;timestamp;P1;durP1;ratioP1;P2;durP2;ratioP2
51636;SDS011;37713;53.254;6.460;2022-12-07T00:02:20;13.68;;;2.58;;
51636;SDS011;37713;53.254;6.460;2022-12-07T00:04:45;14.68;;;1.40;;
51636;SDS011;37713;53.254;6.460;2022-12-07T00:07:13;6.05;;;1.15;;
51636;SDS011;37713;53.254;6.460;2022-12-07T00:09:39;10.60;;;1.13;;
51636;SDS011;37713;53.254;6.460;2022-12-07T00:12:06;13.27;;;1.48;;
51636;SDS011;37713;53.254;6.460;2022-12-07T00:14:33;11.30;;;1.02;;
51636;SDS011;37713;53.254;6.460;2022-12-07T00:16:59;7.55;;;0.85;;
51636;SDS011;37713;53.254;6.460;2022-12-07T00:19:24;8.25;;;0.90;;
51636;SDS011;37713;53.254;6.460;2022-12-07T00:21:50;10.65;;;1.17;;
51636;SDS011;37713;53.254;6.460;2022-12-07T00:24:16;5.90;;;0.77;;
51636;SDS011;37713;53.254;6.460;2022-12-07T00:26:42;5.07;;;1.00;;
51636;SDS011;37713;53.254;6.460;2022-12-07T00:29:14;6.63;;;0.77;;
51636;SDS011;37713;53.254;6.460;2022-12-07T00:31:42;5.40;;;1.02;;
51636;SDS011;37713;53.254;6.460;2022-12-07T00:34:11;6.43;;;0.77;;
51636;SDS011;37713;53.254;6.460;2022-12-07T00:36:39;7.97;;;0.82;;
51636;SDS011;37713;53.254;6.460;2022-12-07T00:39:05;5.68;;;0.90;;
51636;SDS011;37713;53.254;6.460;2022-12-07T00:41:30;7.32;;;1.10;;
51636;SDS011;37713;53.254;6.460;2022-12-07T00:43:56;6.45;;;0.60;;
51636;SDS011;37713;53.254;6.460;2022-12-07T00:46:23;5.63;;;0.55;;
51636;SDS011;37713;53.254;6.460;2022-12-07T00:48:49;7.10;;;0.75;;
51636;SDS011;37713;53.254;6.460;2022-12-07T00:51:17;7.53;;;1.08;;
51636;SDS011;37713;53.254;6.460;2022-12-07T00:53:44;6.20;;;0.80;;
51636;SDS011;37713;53.254;6.460;2022-12-07T00:56:11;4.68;;;0.80;;
51636;SDS011;37713;53.254;6.460;2022-12-07T00:58:39;5.30;;;0.50;;
51636;SDS011;37713;53.254;6.460;2022-12-07T01:01:05;4.18;;;0.65;;
51636;SDS011;37713;53.254;6.460;2022-12-07T01:03:33;8.05;;;0.88;;
51636;SDS011;37713;53.254;6.460;2022-12-07T01:05:59;3.97;;;0.70;;
51636;SDS011;37713;53.254;6.460;2022-12-07T01:08:26;6.05;;;0.70;;
51636;SDS011;37713;53.254;6.460;2022-12-07T01:11:03;5.65;;;0.60;;
51636;SDS011;37713;53.254;6.460;2022-12-07T01:13:32;4.70;;;0.50;;
51636;SDS011;37713;53.254;6.460;2022-12-07T01:16:00;3.72;;;0.65;;
51636;SDS011;37713;53.254;6.460;2022-12-07T01:18:28;5.22;;;0.57;;
51636;SDS011;37713;53.254;6.460;2022-12-07T01:23:29;10.70;;;0.80;;
51636;SDS011;37713;53.254;6.460;2022-12-07T01:25:59;4.80;;;0.65;;
51636;SDS011;37713;53.254;6.460;2022-12-07T01:28:27;4.55;;;0.60;;
51636;SDS011;37713;53.254;6.460;2022-12-07T01:33:27;8.60;;;0.80;;
51636;SDS011;37713;53.254;6.460;2022-12-07T01:35:54;4.45;;;0.77;;
51636;SDS011;37713;53.254;6.460;2022-12-07T01:38:25;7.05;;;1.10;;
51636;SDS011;37713;53.254;6.460;2022-12-07T01:40:54;10.27;;;1.23;;
51636;SDS011;37713;53.254;6.460;2022-12-07T01:43:21;10.10;;;2.25;;
51636;SDS011;37713;53.254;6.460;2022-12-07T01:45:48;12.38;;;1.17;;
51636;SDS011;37713;53.254;6.460;2022-12-07T01:48:15;9.40;;;1.42;;
51636;SDS011;37713;53.254;6.460;2022-12-07T01:50:45;7.50;;;0.75;;
51636;SDS011;37713;53.254;6.460;2022-12-07T01:53:15;8.32;;;1.13;;
51636;SDS011;37713;53.254;6.460;2022-12-07T01:55:43;6.15;;;0.75;;
51636;SDS011;37713;53.254;6.460;2022-12-07T02:00:39;4.05;;;0.70;;
51636;SDS011;37713;53.254;6.460;2022-12-07T02:05:34;7.72;;;1.00;;
51636;SDS011;37713;53.254;6.460;2022-12-07T02:08:03;13.93;;;2.60;;
51636;SDS011;37713;53.254;6.460;2022-12-07T02:10:30;8.82;;;0.90;;
51636;SDS011;37713;53.254;6.460;2022-12-07T02:13:05;8.73;;;0.98;;
51636;SDS011;37713;53.254;6.460;2022-12-07T02:24:12;6.97;;;0.98;;
51636;SDS011;37713;53.254;6.460;2022-12-07T02:29:40;7.30;;;1.20;;
51636;SDS011;37713;53.254;6.460;2022-12-07T02:32:28;9.50;;;0.95;;
51636;SDS011;37713;53.254;6.460;2022-12-07T02:35:06;8.32;;;1.17;;
51636;SDS011;37713;53.254;6.460;2022-12-07T02:41:18;4.75;;;0.45;;
51636;SDS011;37713;53.254;6.460;2022-12-07T02:43:52;6.57;;;0.70;;
51636;SDS011;37713;53.254;6.460;2022-12-07T02:46:33;6.18;;;0.65;;
51636;SDS011;37713;53.254;6.460;2022-12-07T02:49:05;7.43;;;0.60;;
51636;SDS011;37713;53.254;6.460;2022-12-07T02:51:33;1.92;;;0.50;;
51636;SDS011;37713;53.254;6.460;2022-12-07T02:53:59;3.80;;;0.68;;
51636;SDS011;37713;53.254;6.460;2022-12-07T03:10:01;5.35;;;0.60;;
51636;SDS011;37713;53.254;6.460;2022-12-07T03:12:46;7.00;;;0.73;;
51636;SDS011;37713;53.254;6.460;2022-12-07T03:15:27;3.50;;;1.00;;
51636;SDS011;37713;53.254;6.460;2022-12-07T03:18:08;3.45;;;0.50;;
51636;SDS011;37713;53.254;6.460;2022-12-07T03:20:37;10.67;;;0.80;;
51636;SDS011;37713;53.254;6.460;2022-12-07T03:23:05;8.38;;;1.08;;
51636;SDS011;37713;53.254;6.460;2022-12-07T03:25:35;5.88;;;0.68;;
51636;SDS011;37713;53.254;6.460;2022-12-07T03:28:10;5.03;;;0.63;;
51636;SDS011;37713;53.254;6.460;2022-12-07T03:31:03;4.88;;;0.90;;
51636;SDS011;37713;53.254;6.460;2022-12-07T03:36:50;5.82;;;0.80;;
51636;SDS011;37713;53.254;6.460;2022-12-07T03:42:04;10.30;;;0.80;;
51636;SDS011;37713;53.254;6.460;2022-12-07T03:44:32;7.18;;;0.80;;
51636;SDS011;37713;53.254;6.460;2022-12-07T03:47:06;10.73;;;1.13;;
51636;SDS011;37713;53.254;6.460;2022-12-07T03:49:49;3.85;;;0.90;;
51636;SDS011;37713;53.254;6.460;2022-12-07T03:52:40;7.85;;;0.98;;
51636;SDS011;37713;53.254;6.460;2022-12-07T03:57:39;10.82;;;1.48;;
51636;SDS011;37713;53.254;6.460;2022-12-07T04:00:08;7.00;;;0.80;;
51636;SDS011;37713;53.254;6.460;2022-12-07T04:02:36;8.68;;;0.70;;
51636;SDS011;37713;53.254;6.460;2022-12-07T04:05:02;8.30;;;0.80;;
51636;SDS011;37713;53.254;6.460;2022-12-07T04:07:28;7.97;;;0.85;;
51636;SDS011;37713;53.254;6.460;2022-12-07T04:09:54;9.77;;;0.80;;
51636;SDS011;37713;53.254;6.460;2022-12-07T04:12:20;4.57;;;0.70;;
51636;SDS011;37713;53.254;6.460;2022-12-07T04:14:46;9.40;;;0.90;;
51636;SDS011;37713;53.254;6.460;2022-12-07T04:17:12;9.40;;;0.60;;
51636;SDS011;37713;53.254;6.460;2022-12-07T04:19:38;6.75;;;1.10;;
51636;SDS011;37713;53.254;6.460;2022-12-07T04:22:04;7.07;;;0.73;;
51636;SDS011;37713;53.254;6.460;2022-12-07T04:24:30;5.38;;;0.80;;
51636;SDS011;37713;53.254;6.460;2022-12-07T04:26:56;12.07;;;1.20;;
51636;SDS011;37713;53.254;6.460;2022-12-07T04:29:22;5.20;;;0.73;;
51636;SDS011;37713;53.254;6.460;2022-12-07T04:31:49;7.85;;;1.02;;
51636;SDS011;37713;53.254;6.460;2022-12-07T04:34:15;8.27;;;1.00;;
51636;SDS011;37713;53.254;6.460;2022-12-07T04:36:41;9.50;;;0.90;;
51636;SDS011;37713;53.254;6.460;2022-12-07T04:39:09;8.40;;;1.20;;
51636;SDS011;37713;53.254;6.460;2022-12-07T04:41:49;10.15;;;0.93;;
51636;SDS011;37713;53.254;6.460;2022-12-07T04:44:15;5.50;;;0.80;;
51636;SDS011;37713;53.254;6.460;2022-12-07T04:46:41;9.02;;;1.00;;
51636;SDS011;37713;53.254;6.460;2022-12-07T04:49:08;7.78;;;0.93;;
51636;SDS011;37713;53.254;6.460;2022-12-07T04:51:34;6.50;;;0.90;;
51636;SDS011;37713;53.254;6.460;2022-12-07T04:54:00;4.28;;;0.70;;
51636;SDS011;37713;53.254;6.460;2022-12-07T04:56:26;5.53;;;0.70;;
51636;SDS011;37713;53.254;6.460;2022-12-07T04:58:52;6.78;;;0.77;;
51636;SDS011;37713;53.254;6.460;2022-12-07T05:01:19;5.50;;;1.23;;
51636;SDS011;37713;53.254;6.460;2022-12-07T05:03:45;6.50;;;0.70;;
51636;SDS011;37713;53.254;6.460;2022-12-07T05:06:11;7.80;;;0.70;;
51636;SDS011;37713;53.254;6.460;2022-12-07T05:08:37;5.13;;;0.65;;
51636;SDS011;37713;53.254;6.460;2022-12-07T05:11:04;6.00;;;0.75;;
51636;SDS011;37713;53.254;6.460;2022-12-07T05:13:30;7.43;;;0.65;;
51636;SDS011;37713;53.254;6.460;2022-12-07T05:15:57;6.65;;;0.70;;
51636;SDS011;37713;53.254;6.460;2022-12-07T05:18:22;5.57;;;0.85;;
51636;SDS011;37713;53.254;6.460;2022-12-07T05:20:48;6.88;;;0.80;;
51636;SDS011;37713;53.254;6.460;2022-12-07T05:23:16;6.72;;;0.60;;
51636;SDS011;37713;53.254;6.460;2022-12-07T05:25:42;4.18;;;0.60;;
51636;SDS011;37713;53.254;6.460;2022-12-07T05:28:08;5.40;;;0.70;;
51636;SDS011;37713;53.254;6.460;2022-12-07T05:30:37;6.25;;;1.05;;
51636;SDS011;37713;53.254;6.460;2022-12-07T05:33:03;4.75;;;0.75;;
51636;SDS011;37713;53.254;6.460;2022-12-07T05:35:30;5.72;;;1.00;;
51636;SDS011;37713;53.254;6.460;2022-12-07T05:37:56;6.78;;;0.90;;
51636;SDS011;37713;53.254;6.460;2022-12-07T05:40:22;10.15;;;0.88;;
51636;SDS011;37713;53.254;6.460;2022-12-07T05:42:48;8.43;;;0.93;;
51636;SDS011;37713;53.254;6.460;2022-12-07T05:45:13;6.35;;;1.25;;
51636;SDS011;37713;53.254;6.460;2022-12-07T05:47:39;9.80;;;1.58;;
51636;SDS011;37713;53.254;6.460;2022-12-07T05:50:05;5.22;;;1.00;;
51636;SDS011;37713;53.254;6.460;2022-12-07T05:52:31;9.98;;;1.08;;
51636;SDS011;37713;53.254;6.460;2022-12-07T05:54:57;9.07;;;0.98;;
51636;SDS011;37713;53.254;6.460;2022-12-07T05:57:23;7.85;;;1.00;;
51636;SDS011;37713;53.254;6.460;2022-12-07T05:59:49;7.05;;;0.80;;
51636;SDS011;37713;53.254;6.460;2022-12-07T06:02:15;7.97;;;1.00;;
51636;SDS011;37713;53.254;6.460;2022-12-07T06:04:45;6.97;;;0.90;;
51636;SDS011;37713;53.254;6.460;2022-12-07T06:07:12;10.05;;;1.20;;
51636;SDS011;37713;53.254;6.460;2022-12-07T06:09:40;9.18;;;1.10;;
51636;SDS011;37713;53.254;6.460;2022-12-07T06:12:06;7.90;;;0.82;;
51636;SDS011;37713;53.254;6.460;2022-12-07T06:14:53;4.72;;;0.70;;
51636;SDS011;37713;53.254;6.460;2022-12-07T06:17:18;3.05;;;0.70;;
51636;SDS011;37713;53.254;6.460;2022-12-07T06:19:44;8.43;;;0.80;;
51636;SDS011;37713;53.254;6.460;2022-12-07T06:22:10;2.80;;;0.60;;
51636;SDS011;37713;53.254;6.460;2022-12-07T06:24:36;7.82;;;0.88;;
51636;SDS011;37713;53.254;6.460;2022-12-07T06:27:02;5.45;;;0.60;;
51636;SDS011;37713;53.254;6.460;2022-12-07T06:29:28;7.68;;;0.85;;
51636;SDS011;37713;53.254;6.460;2022-12-07T06:31:54;6.18;;;0.70;;
51636;SDS011;37713;53.254;6.460;2022-12-07T06:34:20;4.28;;;0.70;;
51636;SDS011;37713;53.254;6.460;2022-12-07T06:36:48;7.13;;;0.77;;
51636;SDS011;37713;53.254;6.460;2022-12-07T06:39:17;6.20;;;1.08;;
51636;SDS011;37713;53.254;6.460;2022-12-07T06:41:43;5.72;;;0.93;;
51636;SDS011;37713;53.254;6.460;2022-12-07T06:44:09;4.65;;;1.05;;
51636;SDS011;37713;53.254;6.460;2022-12-07T06:46:35;4.68;;;0.68;;
51636;SDS011;37713;53.254;6.460;2022-12-07T06:49:01;7.60;;;0.80;;
51636;SDS011;37713;53.254;6.460;2022-12-07T06:51:27;3.58;;;0.63;;
51636;SDS011;37713;53.254;6.460;2022-12-07T06:53:53;4.25;;;0.57;;
51636;SDS011;37713;53.254;6.460;2022-12-07T06:56:19;4.18;;;1.05;;
51636;SDS011;37713;53.254;6.460;2022-12-07T06:58:45;4.90;;;0.73;;
51636;SDS011;37713;53.254;6.460;2022-12-07T07:01:11;9.57;;;0.60;;
51636;SDS011;37713;53.254;6.460;2022-12-07T07:03:38;10.68;;;0.98;;
51636;SDS011;37713;53.254;6.460;2022-12-07T07:06:04;7.18;;;0.95;;
51636;SDS011;37713;53.254;6.460;2022-12-07T07:08:31;10.32;;;0.80;;
51636;SDS011;37713;53.254;6.460;2022-12-07T07:10:57;6.35;;;0.73;;
51636;SDS011;37713;53.254;6.460;2022-12-07T07:13:22;7.88;;;0.80;;
51636;SDS011;37713;53.254;6.460;2022-12-07T07:15:48;7.32;;;0.60;;
51636;SDS011;37713;53.254;6.460;2022-12-07T07:18:14;2.75;;;0.85;;
51636;SDS011;37713;53.254;6.460;2022-12-07T07:20:40;7.72;;;0.90;;
51636;SDS011;37713;53.254;6.460;2022-12-07T07:23:05;8.05;;;0.70;;
51636;SDS011;37713;53.254;6.460;2022-12-07T07:25:32;4.22;;;0.70;;
51636;SDS011;37713;53.254;6.460;2022-12-07T07:27:58;9.07;;;0.88;;
51636;SDS011;37713;53.254;6.460;2022-12-07T07:30:24;7.88;;;0.80;;
51636;SDS011;37713;53.254;6.460;2022-12-07T07:32:50;12.75;;;1.25;;
51636;SDS011;37713;53.254;6.460;2022-12-07T07:35:16;9.50;;;1.30;;
51636;SDS011;37713;53.254;6.460;2022-12-07T07:37:42;7.20;;;0.82;;
51636;SDS011;37713;53.254;6.460;2022-12-07T07:40:08;6.45;;;1.00;;
51636;SDS011;37713;53.254;6.460;2022-12-07T07:42:35;6.88;;;0.90;;
51636;SDS011;37713;53.254;6.460;2022-12-07T07:45:01;8.10;;;1.10;;
51636;SDS011;37713;53.254;6.460;2022-12-07T07:47:26;6.38;;;1.13;;
51636;SDS011;37713;53.254;6.460;2022-12-07T07:49:54;6.35;;;0.85;;
51636;SDS011;37713;53.254;6.460;2022-12-07T07:52:19;8.00;;;0.93;;
51636;SDS011;37713;53.254;6.460;2022-12-07T07:54:45;7.93;;;1.45;;
51636;SDS011;37713;53.254;6.460;2022-12-07T07:57:11;7.72;;;1.17;;
51636;SDS011;37713;53.254;6.460;2022-12-07T07:59:37;6.85;;;1.10;;
51636;SDS011;37713;53.254;6.460;2022-12-07T08:02:05;5.40;;;1.27;;
51636;SDS011;37713;53.254;6.460;2022-12-07T08:04:30;7.25;;;1.10;;
51636;SDS011;37713;53.254;6.460;2022-12-07T08:06:56;7.30;;;1.38;;
51636;SDS011;37713;53.254;6.460;2022-12-07T08:09:22;5.53;;;1.15;;
51636;SDS011;37713;53.254;6.460;2022-12-07T08:11:47;6.78;;;1.05;;
51636;SDS011;37713;53.254;6.460;2022-12-07T08:14:13;9.15;;;1.00;;
51636;SDS011;37713;53.254;6.460;2022-12-07T08:16:39;13.57;;;1.48;;
51636;SDS011;37713;53.254;6.460;2022-12-07T08:19:05;9.02;;;1.33;;
51636;SDS011;37713;53.254;6.460;2022-12-07T08:21:31;9.68;;;1.42;;
51636;SDS011;37713;53.254;6.460;2022-12-07T08:23:57;7.93;;;1.00;;
51636;SDS011;37713;53.254;6.460;2022-12-07T08:26:23;11.50;;;1.40;;
51636;SDS011;37713;53.254;6.460;2022-12-07T08:28:49;4.25;;;1.00;;
51636;SDS011;37713;53.254;6.460;2022-12-07T08:31:15;7.05;;;1.25;;
51636;SDS011;37713;53.254;6.460;2022-12-07T08:33:44;12.23;;;1.65;;
51636;SDS011;37713;53.254;6.460;2022-12-07T08:36:11;6.80;;;1.13;;
51636;SDS011;37713;53.254;6.460;2022-12-07T08:38:38;7.82;;;1.08;;
51636;SDS011;37713;53.254;6.460;2022-12-07T08:41:05;9.20;;;1.20;;
51636;SDS011;37713;53.254;6.460;2022-12-07T08:43:32;8.30;;;1.42;;
51636;SDS011;37713;53.254;6.460;2022-12-07T08:49:12;6.72;;;1.20;;
51636;SDS011;37713;53.254;6.460;2022-12-07T08:51:30;13.88;;;1.33;;
51636;SDS011;37713;53.254;6.460;2022-12-07T08:53:56;6.85;;;0.90;;
51636;SDS011;37713;53.254;6.460;2022-12-07T08:56:25;10.50;;;1.13;;
51636;SDS011;37713;53.254;6.460;2022-12-07T08:58:51;10.15;;;1.10;;
51636;SDS011;37713;53.254;6.460;2022-12-07T09:01:18;4.88;;;0.93;;
51636;SDS011;37713;53.254;6.460;2022-12-07T09:03:43;7.20;;;1.60;;
51636;SDS011;37713;53.254;6.460;2022-12-07T09:06:09;4.07;;;0.85;;
51636;SDS011;37713;53.254;6.460;2022-12-07T09:08:36;4.07;;;0.60;;
51636;SDS011;37713;53.254;6.460;2022-12-07T09:11:05;5.43;;;0.70;;
51636;SDS011;37713;53.254;6.460;2022-12-07T09:13:31;5.05;;;0.60;;
51636;SDS011;37713;53.254;6.460;2022-12-07T09:15:56;6.07;;;1.10;;
51636;SDS011;37713;53.254;6.460;2022-12-07T09:18:22;2.78;;;0.47;;
51636;SDS011;37713;53.254;6.460;2022-12-07T09:20:49;2.35;;;0.73;;
51636;SDS011;37713;53.254;6.460;2022-12-07T09:23:15;4.45;;;0.40;;
51636;SDS011;37713;53.254;6.460;2022-12-07T09:25:41;3.05;;;0.50;;
51636;SDS011;37713;53.254;6.460;2022-12-07T09:28:07;5.45;;;0.70;;
51636;SDS011;37713;53.254;6.460;2022-12-07T09:30:33;5.15;;;0.68;;
51636;SDS011;37713;53.254;6.460;2022-12-07T09:32:59;6.35;;;0.65;;
51636;SDS011;37713;53.254;6.460;2022-12-07T09:35:25;7.35;;;0.85;;
51636;SDS011;37713;53.254;6.460;2022-12-07T09:37:51;6.75;;;0.80;;
51636;SDS011;37713;53.254;6.460;2022-12-07T09:40:17;8.00;;;0.90;;
51636;SDS011;37713;53.254;6.460;2022-12-07T09:42:47;5.82;;;0.70;;
51636;SDS011;37713;53.254;6.460;2022-12-07T09:47:56;6.22;;;0.80;;
51636;SDS011;37713;53.254;6.460;2022-12-07T09:50:28;5.55;;;0.90;;
51636;SDS011;37713;53.254;6.460;2022-12-07T09:52:55;5.93;;;0.70;;
51636;SDS011;37713;53.254;6.460;2022-12-07T09:55:31;5.47;;;1.33;;
51636;SDS011;37713;53.254;6.460;2022-12-07T09:57:58;6.43;;;1.02;;
51636;SDS011;37713;53.254;6.460;2022-12-07T10:00:24;7.13;;;1.55;;
51636;SDS011;37713;53.254;6.460;2022-12-07T10:03:00;10.07;;;1.20;;
51636;SDS011;37713;53.254;6.460;2022-12-07T10:07:55;12.07;;;1.10;;
51636;SDS011;37713;53.254;6.460;2022-12-07T10:10:32;8.13;;;1.38;;
51636;SDS011;37713;53.254;6.460;2022-12-07T10:13:00;9.68;;;1.23;;
51636;SDS011;37713;53.254;6.460;2022-12-07T10:15:47;7.63;;;1.10;;
51636;SDS011;37713;53.254;6.460;2022-12-07T10:18:24;5.47;;;1.02;;
51636;SDS011;37713;53.254;6.460;2022-12-07T10:23:34;10.05;;;1.67;;
51636;SDS011;37713;53.254;6.460;2022-12-07T10:27:01;9.00;;;1.13;;
51636;SDS011;37713;53.254;6.460;2022-12-07T10:29:14;8.13;;;1.30;;
51636;SDS011;37713;53.254;6.460;2022-12-07T10:31:41;7.78;;;1.10;;
51636;SDS011;37713;53.254;6.460;2022-12-07T10:34:21;8.80;;;0.75;;
51636;SDS011;37713;53.254;6.460;2022-12-07T10:39:43;10.75;;;1.48;;
51636;SDS011;37713;53.254;6.460;2022-12-07T10:42:17;5.38;;;0.77;;
51636;SDS011;37713;53.254;6.460;2022-12-07T10:44:44;5.70;;;0.80;;
51636;SDS011;37713;53.254;6.460;2022-12-07T10:52:49;8.95;;;1.00;;
51636;SDS011;37713;53.254;6.460;2022-12-07T11:01:10;8.43;;;1.50;;
51636;SDS011;37713;53.254;6.460;2022-12-07T11:37:47;6.40;;;0.73;;
51636;SDS011;37713;53.254;6.460;2022-12-07T11:40:21;6.78;;;0.85;;
51636;SDS011;37713;53.254;6.460;2022-12-07T11:43:03;5.65;;;0.65;;
51636;SDS011;37713;53.254;6.460;2022-12-07T11:45:45;5.45;;;0.50;;
51636;SDS011;37713;53.254;6.460;2022-12-07T11:48:20;3.85;;;0.70;;
51636;SDS011;37713;53.254;6.460;2022-12-07T11:50:54;4.28;;;1.00;;
51636;SDS011;37713;53.254;6.460;2022-12-07T12:07:12;10.23;;;1.23;;
51636;SDS011;37713;53.254;6.460;2022-12-07T12:10:05;6.60;;;0.85;;
51636;SDS011;37713;53.254;6.460;2022-12-07T12:15:44;8.43;;;0.80;;
51636;SDS011;37713;53.254;6.460;2022-12-07T12:21:04;7.72;;;1.00;;
51636;SDS011;37713;53.254;6.460;2022-12-07T12:23:51;8.90;;;0.90;;
51636;SDS011;37713;53.254;6.460;2022-12-07T12:26:24;4.57;;;0.82;;
51636;SDS011;37713;53.254;6.460;2022-12-07T12:31:31;8.55;;;1.20;;
51636;SDS011;37713;53.254;6.460;2022-12-07T12:34:01;5.43;;;0.93;;
51636;SDS011;37713;53.254;6.460;2022-12-07T12:46:53;5.15;;;0.90;;
51636;SDS011;37713;53.254;6.460;2022-12-07T12:49:37;8.30;;;1.10;;
51636;SDS011;37713;53.254;6.460;2022-12-07T12:54:38;6.65;;;1.13;;
51636;SDS011;37713;53.254;6.460;2022-12-07T12:57:24;6.90;;;1.23;;
51636;SDS011;37713;53.254;6.460;2022-12-07T13:02:21;7.13;;;0.70;;
51636;SDS011;37713;53.254;6.460;2022-12-07T13:04:53;7.00;;;0.93;;
51636;SDS011;37713;53.254;6.460;2022-12-07T13:15:33;4.85;;;0.75;;
51636;SDS011;37713;53.254;6.460;2022-12-07T13:18:00;3.55;;;0.70;;
51636;SDS011;37713;53.254;6.460;2022-12-07T13:20:45;3.38;;;0.40;;
51636;SDS011;37713;53.254;6.460;2022-12-07T13:23:23;3.05;;;0.70;;
51636;SDS011;37713;53.254;6.460;2022-12-07T13:29:13;4.07;;;0.88;;
51636;SDS011;37713;53.254;6.460;2022-12-07T13:31:42;7.15;;;1.08;;
51636;SDS011;37713;53.254;6.460;2022-12-07T13:36:57;5.13;;;0.70;;
51636;SDS011;37713;53.254;6.460;2022-12-07T13:39:26;2.58;;;0.50;;
51636;SDS011;37713;53.254;6.460;2022-12-07T13:44:22;3.15;;;0.52;;
51636;SDS011;37713;53.254;6.460;2022-12-07T13:49:51;5.82;;;0.90;;
51636;SDS011;37713;53.254;6.460;2022-12-07T13:52:25;3.72;;;0.80;;
51636;SDS011;37713;53.254;6.460;2022-12-07T13:57:40;3.65;;;0.60;;
51636;SDS011;37713;53.254;6.460;2022-12-07T14:00:16;4.63;;;0.65;;
51636;SDS011;37713;53.254;6.460;2022-12-07T14:05:28;4.75;;;0.75;;
51636;SDS011;37713;53.254;6.460;2022-12-07T14:12:54;5.82;;;0.70;;
51636;SDS011;37713;53.254;6.460;2022-12-07T14:15:21;6.53;;;1.08;;
51636;SDS011;37713;53.254;6.460;2022-12-07T14:17:51;3.90;;;0.70;;
51636;SDS011;37713;53.254;6.460;2022-12-07T14:22:56;6.60;;;1.00;;
51636;SDS011;37713;53.254;6.460;2022-12-07T14:25:23;5.80;;;1.15;;
51636;SDS011;37713;53.254;6.460;2022-12-07T14:27:54;5.40;;;0.90;;
51636;SDS011;37713;53.254;6.460;2022-12-07T14:30:25;11.20;;;1.52;;
51636;SDS011;37713;53.254;6.460;2022-12-07T14:32:54;7.35;;;1.38;;
51636;SDS011;37713;53.254;6.460;2022-12-07T14:35:22;7.15;;;1.10;;
51636;SDS011;37713;53.254;6.460;2022-12-07T14:37:48;6.50;;;0.90;;
51636;SDS011;37713;53.254;6.460;2022-12-07T14:40:16;2.97;;;0.90;;
51636;SDS011;37713;53.254;6.460;2022-12-07T14:42:44;10.00;;;1.33;;
51636;SDS011;37713;53.254;6.460;2022-12-07T14:45:16;4.20;;;0.80;;
51636;SDS011;37713;53.254;6.460;2022-12-07T14:47:44;3.05;;;0.70;;
51636;SDS011;37713;53.254;6.460;2022-12-07T14:50:13;5.03;;;0.80;;
51636;SDS011;37713;53.254;6.460;2022-12-07T14:52:52;3.88;;;0.52;;
51636;SDS011;37713;53.254;6.460;2022-12-07T14:57:50;2.75;;;0.60;;
51636;SDS011;37713;53.254;6.460;2022-12-07T15:00:17;5.38;;;0.90;;
51636;SDS011;37713;53.254;6.460;2022-12-07T15:02:45;3.42;;;0.63;;
51636;SDS011;37713;53.254;6.460;2022-12-07T15:05:11;8.68;;;1.38;;
51636;SDS011;37713;53.254;6.460;2022-12-07T15:07:37;3.83;;;0.82;;
51636;SDS011;37713;53.254;6.460;2022-12-07T15:10:03;5.95;;;1.05;;
51636;SDS011;37713;53.254;6.460;2022-12-07T15:12:29;4.25;;;0.85;;
51636;SDS011;37713;53.254;6.460;2022-12-07T15:14:55;5.35;;;1.17;;
51636;SDS011;37713;53.254;6.460;2022-12-07T15:17:20;4.50;;;0.85;;
51636;SDS011;37713;53.254;6.460;2022-12-07T15:19:46;4.50;;;0.85;;
51636;SDS011;37713;53.254;6.460;2022-12-07T15:22:12;3.17;;;0.80;;
51636;SDS011;37713;53.254;6.460;2022-12-07T15:24:37;5.68;;;0.90;;
51636;SDS011;37713;53.254;6.460;2022-12-07T15:27:03;2.95;;;0.82;;
51636;SDS011;37713;53.254;6.460;2022-12-07T15:29:29;5.40;;;0.80;;
51636;SDS011;37713;53.254;6.460;2022-12-07T15:31:55;5.15;;;0.98;;
51636;SDS011;37713;53.254;6.460;2022-12-07T15:34:21;4.15;;;1.00;;
51636;SDS011;37713;53.254;6.460;2022-12-07T15:36:49;3.63;;;0.60;;
51636;SDS011;37713;53.254;6.460;2022-12-07T15:39:15;2.85;;;0.60;;
51636;SDS011;37713;53.254;6.460;2022-12-07T15:41:40;6.43;;;1.80;;
51636;SDS011;37713;53.254;6.460;2022-12-07T15:44:08;4.35;;;1.38;;
51636;SDS011;37713;53.254;6.460;2022-12-07T15:46:56;3.00;;;0.73;;
51636;SDS011;37713;53.254;6.460;2022-12-07T15:49:21;6.40;;;1.80;;
51636;SDS011;37713;53.254;6.460;2022-12-07T15:51:47;11.02;;;1.77;;
51636;SDS011;37713;53.254;6.460;2022-12-07T15:54:16;5.15;;;1.65;;
51636;SDS011;37713;53.254;6.460;2022-12-07T15:56:45;6.22;;;1.50;;
51636;SDS011;37713;53.254;6.460;2022-12-07T15:59:10;6.10;;;1.20;;
51636;SDS011;37713;53.254;6.460;2022-12-07T16:01:36;6.47;;;1.48;;
51636;SDS011;37713;53.254;6.460;2022-12-07T16:04:02;5.53;;;1.40;;
51636;SDS011;37713;53.254;6.460;2022-12-07T16:06:28;6.35;;;2.22;;
51636;SDS011;37713;53.254;6.460;2022-12-07T16:08:54;8.35;;;3.20;;
51636;SDS011;37713;53.254;6.460;2022-12-07T16:11:19;11.38;;;5.60;;
51636;SDS011;37713;53.254;6.460;2022-12-07T16:13:45;7.93;;;3.63;;
51636;SDS011;37713;53.254;6.460;2022-12-07T16:16:12;8.05;;;3.20;;
51636;SDS011;37713;53.254;6.460;2022-12-07T16:18:41;5.38;;;1.98;;
51636;SDS011;37713;53.254;6.460;2022-12-07T16:21:08;3.38;;;1.27;;
51636;SDS011;37713;53.254;6.460;2022-12-07T16:23:34;3.83;;;1.08;;
51636;SDS011;37713;53.254;6.460;2022-12-07T16:26:07;5.78;;;1.15;;
51636;SDS011;37713;53.254;6.460;2022-12-07T16:28:34;5.50;;;0.90;;
51636;SDS011;37713;53.254;6.460;2022-12-07T16:31:04;4.97;;;0.60;;
51636;SDS011;37713;53.254;6.460;2022-12-07T16:33:35;7.88;;;0.90;;
51636;SDS011;37713;53.254;6.460;2022-12-07T16:36:03;6.60;;;0.73;;
51636;SDS011;37713;53.254;6.460;2022-12-07T16:38:31;4.00;;;0.80;;
51636;SDS011;37713;53.254;6.460;2022-12-07T16:40:57;7.28;;;0.93;;
51636;SDS011;37713;53.254;6.460;2022-12-07T16:43:23;4.75;;;0.60;;
51636;SDS011;37713;53.254;6.460;2022-12-07T16:45:49;3.85;;;0.70;;
51636;SDS011;37713;53.254;6.460;2022-12-07T16:48:15;5.85;;;1.35;;
51636;SDS011;37713;53.254;6.460;2022-12-07T16:50:41;8.80;;;2.00;;
51636;SDS011;37713;53.254;6.460;2022-12-07T16:53:08;9.02;;;3.20;;
51636;SDS011;37713;53.254;6.460;2022-12-07T16:55:38;11.15;;;3.40;;
51636;SDS011;37713;53.254;6.460;2022-12-07T16:58:08;11.45;;;2.42;;
51636;SDS011;37713;53.254;6.460;2022-12-07T17:00:35;6.10;;;1.45;;
51636;SDS011;37713;53.254;6.460;2022-12-07T17:03:01;8.40;;;1.83;;
51636;SDS011;37713;53.254;6.460;2022-12-07T17:05:28;9.02;;;1.17;;
51636;SDS011;37713;53.254;6.460;2022-12-07T17:07:54;4.40;;;0.88;;
51636;SDS011;37713;53.254;6.460;2022-12-07T17:10:21;5.07;;;0.90;;
51636;SDS011;37713;53.254;6.460;2022-12-07T17:12:47;3.15;;;0.80;;
51636;SDS011;37713;53.254;6.460;2022-12-07T17:15:13;3.80;;;0.82;;
51636;SDS011;37713;53.254;6.460;2022-12-07T17:17:45;7.13;;;0.90;;
51636;SDS011;37713;53.254;6.460;2022-12-07T17:20:15;7.50;;;1.13;;
51636;SDS011;37713;53.254;6.460;2022-12-07T17:22:42;6.75;;;1.30;;
51636;SDS011;37713;53.254;6.460;2022-12-07T17:25:09;3.47;;;1.17;;
51636;SDS011;37713;53.254;6.460;2022-12-07T17:27:35;4.53;;;0.70;;
51636;SDS011;37713;53.254;6.460;2022-12-07T17:30:02;3.15;;;0.68;;
51636;SDS011;37713;53.254;6.460;2022-12-07T17:32:30;4.22;;;0.60;;
51636;SDS011;37713;53.254;6.460;2022-12-07T17:34:56;6.15;;;0.73;;
51636;SDS011;37713;53.254;6.460;2022-12-07T17:37:21;3.00;;;0.73;;
51636;SDS011;37713;53.254;6.460;2022-12-07T17:39:47;3.63;;;0.57;;
51636;SDS011;37713;53.254;6.460;2022-12-07T17:42:13;5.45;;;1.00;;
51636;SDS011;37713;53.254;6.460;2022-12-07T17:44:57;4.70;;;0.40;;
51636;SDS011;37713;53.254;6.460;2022-12-07T17:47:23;3.15;;;0.55;;
51636;SDS011;37713;53.254;6.460;2022-12-07T17:49:49;6.13;;;0.63;;
51636;SDS011;37713;53.254;6.460;2022-12-07T17:52:15;2.70;;;0.52;;
51636;SDS011;37713;53.254;6.460;2022-12-07T17:54:59;5.25;;;0.90;;